Time;durP1;ratioP1;P1;durP2;ratioP2;P2;SDS_P1;SDS_P2;PMS_P1;PMS_P2;Temp;Humidity;BMP_temperature;BMP_pressure;BME280_temperature;BME280_humidity;BME280_pressure;Samples;Min_cycle;Max_cycle;Signal;HPM_P1;HPM_P2
2022/01/25 00:10:25;;;;;;;70.40;39.10;;;;;;;2.07;97.64;103401.84;4964533;28;20140;-61
2022/01/25 00:24:17;;;;;;;69.70;39.70;;;;;;;2.12;97.49;103407.78;4884650;29;20044;-61
2022/01/25 00:27:36;;;;;;;76.30;41.58;;;;;;;2.06;97.82;103405.53;4962816;28;20042;-61
2022/01/25 00:30:09;;;;;;;81.93;42.53;;;;;;;2.07;97.89;103405.41;4964763;28;20043;-61
2022/01/25 00:32:35;;;;;;;75.78;41.88;;;;;;;2.10;98.13;103403.47;4964315;28;20121;-61
2022/01/25 00:35:00;;;;;;;82.13;42.67;;;;;;;2.11;97.74;103411.47;4963827;28;20644;-61
2022/01/25 00:37:25;;;;;;;82.25;42.90;;;;;;;2.13;97.70;103414.97;4964355;28;20113;-61
2022/01/25 00:39:51;;;;;;;78.07;40.90;;;;;;;2.15;97.74;103412.13;4962028;28;20047;-61
2022/01/25 00:42:16;;;;;;;78.25;41.25;;;;;;;2.16;98.03;103416.56;4963636;28;20059;-61
2022/01/25 00:44:46;;;;;;;77.80;42.47;;;;;;;2.15;98.22;103413.00;4963894;28;20034;-61
2022/01/25 00:47:12;;;;;;;78.88;42.88;;;;;;;2.14;97.87;103405.84;4963592;28;20089;-61
2022/01/25 00:49:40;;;;;;;80.28;41.92;;;;;;;2.14;97.68;103405.84;4964253;28;20391;-61
2022/01/25 00:52:20;;;;;;;80.75;42.92;;;;;;;2.14;98.03;103402.28;4962543;28;20026;-61
2022/01/25 00:54:47;;;;;;;74.20;41.90;;;;;;;2.14;98.17;103399.56;4963304;28;20027;-61
2022/01/25 00:57:12;;;;;;;75.82;41.10;;;;;;;2.13;98.06;103397.81;4963451;28;20053;-61
2022/01/25 00:59:38;;;;;;;78.13;42.92;;;;;;;2.13;98.16;103398.69;4963450;28;20027;-61
2022/01/25 01:02:11;;;;;;;73.88;41.13;;;;;;;2.14;98.00;103396.84;4962840;28;20041;-62
2022/01/25 01:04:37;;;;;;;70.95;41.83;;;;;;;2.11;98.14;103405.19;4962024;28;20031;-61
2022/01/25 01:07:06;;;;;;;74.10;41.05;;;;;;;2.11;98.17;103407.91;4961878;28;20034;-61
2022/01/25 01:09:34;;;;;;;79.53;42.67;;;;;;;2.08;98.43;103409.88;4960428;28;20114;-61
2022/01/25 01:12:39;;;;;;;74.32;43.00;;;;;;;2.07;98.06;103405.41;4964279;28;20042;-61
2022/01/25 01:15:03;;;;;;;73.95;40.35;;;;;;;2.08;98.11;103399.03;4962360;28;20478;-61
2022/01/25 01:31:17;;;;;;;83.07;44.25;;;;;;;2.23;98.11;103407.88;4967415;28;20401;-61
2022/01/25 01:34:15;;;;;;;77.28;41.00;;;;;;;2.26;97.93;103406.78;4967598;28;20375;-61
2022/01/25 01:44:52;;;;;;;75.55;41.00;;;;;;;2.29;97.77;103409.28;4964963;28;20050;-61
2022/01/25 01:47:36;;;;;;;81.15;42.17;;;;;;;2.29;97.96;103412.00;4966335;28;20037;-61
2022/01/25 01:50:08;;;;;;;76.75;40.13;;;;;;;2.29;98.17;103412.84;4965298;28;20065;-61
2022/01/25 01:52:33;;;;;;;78.50;42.47;;;;;;;2.28;97.91;103416.56;4967051;28;20142;-61
2022/01/25 01:54:58;;;;;;;81.97;42.95;;;;;;;2.31;97.84;103423.56;4964869;28;20503;-61
2022/01/25 01:57:24;;;;;;;81.38;44.13;;;;;;;2.32;98.17;103419.88;4966952;28;20142;-61
2022/01/25 01:59:49;;;;;;;82.10;43.42;;;;;;;2.32;97.97;103409.03;4966923;28;20477;-61
2022/01/25 02:02:14;;;;;;;82.35;43.40;;;;;;;2.33;97.98;103408.03;4964888;28;20401;-61
2022/01/25 02:04:39;;;;;;;83.57;43.78;;;;;;;2.34;97.98;103407.09;4965998;28;20038;-61
2022/01/25 02:07:05;;;;;;;82.53;41.72;;;;;;;2.37;98.07;103404.13;4965129;28;20074;-61
2022/01/25 02:09:32;;;;;;;74.95;39.60;;;;;;;2.37;97.93;103401.41;4966696;28;20494;-61
2022/01/25 02:11:58;;;;;;;67.88;38.40;;;;;;;2.36;97.97;103399.69;4966901;28;20039;-61
2022/01/25 02:14:23;;;;;;;67.13;37.45;;;;;;;2.36;98.21;103399.69;4966542;28;20035;-61
2022/01/25 02:24:45;;;;;;;66.00;36.25;;;;;;;2.34;98.25;103386.25;4965469;28;20045;-61
2022/01/25 02:27:11;;;;;;;72.63;38.95;;;;;;;2.32;98.35;103387.34;4964884;28;20026;-61
2022/01/25 02:29:37;;;;;;;76.38;39.75;;;;;;;2.32;98.67;103382.78;4966553;28;20035;-61
2022/01/25 02:32:03;;;;;;;70.97;38.45;;;;;;;2.36;98.12;103391.56;4963530;28;20034;-62
2022/01/25 02:34:28;;;;;;;68.00;38.40;;;;;;;2.31;98.23;103388.31;4966192;28;20038;-61
2022/01/25 02:37:03;;;;;;;71.30;39.08;;;;;;;2.30;98.53;103375.75;4965803;28;20106;-61
2022/01/25 02:39:29;;;;;;;75.75;41.38;;;;;;;2.27;98.25;103379.53;4966368;28;20035;-61
2022/01/25 02:41:55;;;;;;;78.82;42.08;;;;;;;2.26;98.71;103382.38;4966836;28;20047;-61
2022/01/25 02:44:26;;;;;;;71.28;39.50;;;;;;;2.27;98.37;103379.53;4965873;28;20109;-61
2022/01/25 02:49:28;;;;;;;80.53;42.85;;;;;;;2.29;98.62;103383.03;4966459;28;20034;-61
2022/01/25 02:51:53;;;;;;;78.65;40.30;;;;;;;2.31;98.60;103372.06;4964742;28;20042;-61
2022/01/25 02:54:19;;;;;;;77.20;42.30;;;;;;;2.31;98.27;103380.19;4962413;28;20019;-61
2022/01/25 02:59:12;;;;;;;81.53;39.83;;;;;;;2.32;98.52;103382.78;5001259;22;20077;-61
2022/01/25 03:01:38;;;;;;;75.43;38.97;;;;;;;2.31;98.68;103383.75;5003975;28;20025;-61
2022/01/25 03:04:05;;;;;;;73.50;38.78;;;;;;;2.31;98.66;103377.47;5004050;28;20033;-62
2022/01/25 03:06:30;;;;;;;79.45;39.88;;;;;;;2.29;98.92;103371.31;5003775;28;20030;-61
2022/01/25 03:08:56;;;;;;;80.80;41.17;;;;;;;2.28;98.50;103374.97;5003904;28;20084;-61
2022/01/25 03:11:23;;;;;;;80.28;41.80;;;;;;;2.29;98.81;103365.91;5004122;28;20069;-61
2022/01/25 03:13:52;;;;;;;86.10;44.10;;;;;;;2.29;98.85;103365.91;5005403;28;20029;-61
2022/01/25 03:16:32;;;;;;;88.22;42.42;;;;;;;2.27;98.85;103363.28;5004224;28;20030;-61
2022/01/25 03:19:01;;;;;;;88.25;44.05;;;;;;;2.29;98.76;103361.34;5004057;28;20064;-61
2022/01/25 03:23:52;;;;;;;82.82;41.60;;;;;;;2.34;98.61;103353.72;5002790;28;20112;-61
2022/01/25 03:26:18;;;;;;;90.88;44.85;;;;;;;2.36;98.27;103355.44;5003878;28;20076;-61
2022/01/25 03:28:44;;;;;;;77.72;39.75;;;;;;;2.35;98.59;103354.56;5001508;28;20032;-61
2022/01/25 03:31:10;;;;;;;77.88;37.88;;;;;;;2.36;98.37;103352.72;5003486;28;20026;-61
2022/01/25 03:33:36;;;;;;;79.97;41.58;;;;;;;2.36;98.79;103345.47;5004344;28;20069;-61
2022/01/25 03:36:03;;;;;;;88.72;44.13;;;;;;;2.37;98.93;103351.75;5003163;28;20049;-61
2022/01/25 03:38:28;;;;;;;88.55;44.85;;;;;;;2.36;98.35;103345.47;5003886;28;20034;-61
2022/01/25 03:40:54;;;;;;;86.10;44.00;;;;;;;2.35;98.11;103349.16;5002489;28;20156;-61
2022/01/25 03:43:19;;;;;;;77.10;40.05;;;;;;;2.35;98.38;103343.72;5003190;28;20115;-61
2022/01/25 03:45:58;;;;;;;82.97;40.20;;;;;;;2.35;98.49;103354.56;5003294;28;20053;-61
2022/01/25 03:50:50;;;;;;;89.55;44.22;;;;;;;2.34;98.25;103350.16;5003951;28;20033;-61
2022/01/25 03:53:18;;;;;;;91.30;45.75;;;;;;;2.37;97.93;103355.31;5004823;28;20049;-61
2022/01/25 03:55:44;;;;;;;99.90;47.22;;;;;;;2.40;97.85;103357.81;5002092;28;20040;-61
2022/01/25 03:58:09;;;;;;;93.82;45.65;;;;;;;2.43;97.98;103367.53;5002470;28;20034;-61
2022/01/25 04:00:36;;;;;;;96.15;44.65;;;;;;;2.45;97.97;103355.63;5002014;28;20049;-61
2022/01/25 04:03:10;;;;;;;96.50;44.83;;;;;;;2.45;97.47;103365.59;5001431;28;20454;-61
2022/01/25 04:08:07;;;;;;;88.03;43.28;;;;;;;2.47;98.07;103360.91;5000999;28;20073;-61
2022/01/25 04:10:32;;;;;;;89.38;42.83;;;;;;;2.48;98.51;103368.94;5003055;28;20519;-61
2022/01/25 04:12:58;;;;;;;95.10;44.10;;;;;;;2.48;98.24;103366.22;5003106;28;20040;-61
2022/01/25 04:15:23;;;;;;;96.55;45.13;;;;;;;2.49;97.78;103367.13;5003198;28;20116;-61
2022/01/25 04:17:55;;;;;;;94.80;44.90;;;;;;;2.50;97.70;103366.97;5003120;28;20415;-61
2022/01/25 04:20:31;;;;;;;87.00;43.88;;;;;;;2.50;97.61;103369.69;5002540;28;20425;-61
2022/01/25 04:25:40;;;;;;;87.55;43.30;;;;;;;2.49;97.69;103354.41;5001279;28;20049;-62
2022/01/25 04:28:06;;;;;;;81.95;39.97;;;;;;;2.48;97.78;103352.66;5001089;28;20018;-61
2022/01/25 04:30:31;;;;;;;85.85;40.95;;;;;;;2.48;98.03;103354.50;5003446;28;20041;-61
2022/01/25 04:33:01;;;;;;;90.63;43.63;;;;;;;2.49;97.93;103358.97;5004082;28;20361;-61
2022/01/25 04:36:39;;;;;;;88.18;43.38;;;;;;;2.49;97.85;103351.69;5003268;28;20034;-61
2022/01/25 04:54:19;;;;;;;86.20;40.45;;;;;;;2.48;97.99;103349.94;4988543;28;20387;-62
2022/01/25 04:57:06;;;;;;;84.18;41.72;;;;;;;2.49;98.11;103338.13;5003228;28;20026;-61
2022/01/25 04:59:39;;;;;;;84.00;39.57;;;;;;;2.49;98.24;103345.41;5004563;28;20035;-61
2022/01/25 05:02:15;;;;;;;84.63;40.20;;;;;;;2.47;98.31;103340.06;5004508;28;20057;-61
2022/01/25 05:04:46;;;;;;;86.05;42.17;;;;;;;2.45;98.10;103330.34;5006542;28;20030;-62
2022/01/25 05:09:47;;;;;;;92.15;41.90;;;;;;;2.48;98.16;103333.66;5006490;28;20069;-61
2022/01/25 05:12:13;;;;;;;88.03;41.67;;;;;;;2.47;98.18;103334.66;5006776;28;20033;-61
2022/01/25 05:14:55;;;;;;;86.78;42.72;;;;;;;2.49;98.28;103346.28;5005709;28;20040;-62
2022/01/25 05:17:30;;;;;;;83.53;41.58;;;;;;;2.48;98.13;103346.38;5005670;28;20030;-61
2022/01/25 05:22:26;;;;;;;82.37;41.47;;;;;;;2.46;98.32;103332.06;5006298;28;20044;-61
2022/01/25 05:24:52;;;;;;;83.85;40.50;;;;;;;2.47;98.46;103336.50;5005011;28;20304;-61
2022/01/25 05:27:21;;;;;;;86.80;41.63;;;;;;;2.47;98.49;103331.94;4997535;28;20466;-61
2022/01/25 05:29:46;;;;;;;;;;;;;;;2.56;98.19;103333.97;5001500;28;20044;-61
2022/01/25 05:32:12;;;;;;;86.57;41.63;;;;;;;2.50;98.17;103329.00;5005104;28;19921;-61
2022/01/25 05:34:37;;;;;;;85.65;40.83;;;;;;;2.53;97.58;103336.03;5006314;28;20636;-61
2022/01/25 05:37:04;;;;;;;86.10;41.25;;;;;;;2.49;97.85;103345.41;5004984;28;20026;-61
2022/01/25 05:39:34;;;;;;;85.75;40.78;;;;;;;2.47;97.82;103341.94;5004651;28;20042;-61
2022/01/25 05:42:18;;;;;;;91.13;42.90;;;;;;;2.44;98.07;103329.47;5006050;28;20036;-61
2022/01/25 05:47:20;;;;;;;98.38;46.28;;;;;;;2.44;97.92;103331.34;5005292;28;20026;-61
2022/01/25 05:49:46;;;;;;;99.30;46.88;;;;;;;2.45;97.21;103328.50;5005546;28;20065;-61
2022/01/25 05:52:12;;;;;;;103.50;48.30;;;;;;;2.45;96.79;103333.06;5004391;28;20081;-61
2022/01/25 05:54:39;;;;;;;90.97;44.20;;;;;;;2.54;96.53;103332.38;5006666;28;20042;-61
2022/01/25 05:57:05;;;;;;;96.03;44.38;;;;;;;2.47;97.44;103331.94;5003660;28;20692;-61
2022/01/25 05:59:30;;;;;;;103.38;46.72;;;;;;;2.43;97.11;103324.16;5004227;28;20100;-61
2022/01/25 06:01:56;;;;;;;103.25;47.60;;;;;;;2.42;96.67;103323.28;5002139;28;20030;-61
2022/01/25 06:04:22;;;;;;;101.13;47.05;;;;;;;2.45;96.95;103331.22;5005555;28;20049;-61
2022/01/25 06:06:48;;;;;;;93.15;43.40;;;;;;;2.47;97.06;103323.81;5001841;28;20288;-61
2022/01/25 06:09:13;;;;;;;95.95;43.03;;;;;;;2.48;97.75;103321.97;5003693;28;20034;-60
2022/01/25 06:11:38;;;;;;;93.32;41.08;;;;;;;2.48;97.76;103330.09;5004211;28;20032;-61
2022/01/25 06:14:04;;;;;;;96.10;42.95;;;;;;;2.48;97.80;103333.66;5005759;28;20052;-61
2022/01/25 06:16:29;;;;;;;95.70;44.50;;;;;;;2.48;97.64;103328.25;5004621;28;20354;-61
2022/01/25 06:18:55;;;;;;;97.53;43.17;;;;;;;2.47;97.92;103326.50;5004539;28;20034;-61
2022/01/25 06:21:21;;;;;;;99.93;44.15;;;;;;;2.48;97.66;103330.94;5003863;28;20102;-61
2022/01/25 06:23:46;;;;;;;98.72;44.20;;;;;;;2.46;97.71;103330.22;5005271;28;20156;-61
2022/01/25 06:26:11;;;;;;;100.13;45.55;;;;;;;2.45;97.85;103325.78;5003572;28;20036;-61
2022/01/25 06:28:37;;;;;;;95.80;43.97;;;;;;;2.47;97.71;103323.81;5003338;28;20472;-61
2022/01/25 06:31:02;;;;;;;104.45;47.08;;;;;;;2.48;97.93;103325.53;5004332;28;20036;-61
2022/01/25 06:33:27;;;;;;;101.75;44.00;;;;;;;2.50;97.78;103325.44;5005832;28;20037;-61
2022/01/25 06:35:53;;;;;;;95.75;45.65;;;;;;;2.49;97.57;103324.56;5000309;28;20121;-61
2022/01/25 06:38:18;;;;;;;105.90;47.80;;;;;;;2.49;97.60;103334.56;5000219;28;20030;-61
2022/01/25 06:40:44;;;;;;;96.65;45.58;;;;;;;2.49;97.58;103330.00;5004699;28;20033;-61
2022/01/25 06:43:09;;;;;;;98.30;46.22;;;;;;;2.51;97.65;103322.59;5003340;28;20030;-61
2022/01/25 06:45:39;;;;;;;94.55;43.13;;;;;;;2.52;97.45;103331.59;5002181;28;20033;-61
2022/01/25 06:48:05;;;;;;;104.28;47.33;;;;;;;2.51;97.75;103329.88;5003435;28;20096;-61
2022/01/25 06:50:30;;;;;;;105.95;45.10;;;;;;;2.52;97.61;103335.16;5004126;28;20460;-61
2022/01/25 06:52:55;;;;;;;100.68;46.33;;;;;;;2.54;97.11;103332.38;5004599;28;20649;-61
2022/01/25 06:55:20;;;;;;;99.88;46.13;;;;;;;2.53;97.37;103325.19;5003956;28;20029;-61
2022/01/25 06:57:46;;;;;;;99.30;46.17;;;;;;;2.53;97.01;103331.47;5003399;28;20049;-61
2022/01/25 07:00:15;;;;;;;102.05;45.58;;;;;;;2.55;97.02;103334.09;5003608;28;20057;-61
2022/01/25 07:02:40;;;;;;;102.70;47.55;;;;;;;2.55;96.87;103340.38;4999853;28;20037;-61
2022/01/25 07:05:06;;;;;;;105.07;46.47;;;;;;;2.56;96.91;103338.53;5002241;28;20076;-61
2022/01/25 07:07:31;;;;;;;106.45;49.85;;;;;;;2.58;96.41;103345.53;4995370;28;20544;-61
2022/01/25 07:09:57;;;;;;;104.63;48.75;;;;;;;2.58;96.17;103340.13;5001649;28;20025;-61
2022/01/25 07:12:23;;;;;;;111.47;50.13;;;;;;;2.60;96.00;103343.59;5001623;28;20037;-61
2022/01/25 07:14:49;;;;;;;103.88;46.35;;;;;;;2.61;96.04;103341.75;5003772;28;20495;-61
2022/01/25 07:17:15;;;;;;;94.60;43.85;;;;;;;2.59;96.47;103347.31;5005218;28;20042;-61
2022/01/25 07:19:40;;;;;;;95.53;44.72;;;;;;;2.58;96.67;103350.09;5004897;28;20033;-61
2022/01/25 07:22:05;;;;;;;95.43;44.35;;;;;;;2.58;96.61;103345.53;5000949;28;20151;-61
2022/01/25 07:24:31;;;;;;;98.90;45.60;;;;;;;2.58;97.11;103350.09;5004951;28;20033;-61
2022/01/25 07:26:56;;;;;;;101.50;44.25;;;;;;;2.56;97.05;103347.53;5003277;28;20568;-61
2022/01/25 07:29:22;;;;;;;87.40;42.05;;;;;;;2.58;97.26;103361.81;5005436;28;20030;-61
2022/01/25 07:31:47;;;;;;;104.97;47.67;;;;;;;2.59;96.70;103347.31;5004443;28;20173;-61
2022/01/25 07:34:13;;;;;;;99.57;44.78;;;;;;;2.63;97.14;103355.19;5004710;28;20056;-61
2022/01/25 07:36:41;;;;;;;97.82;44.70;;;;;;;2.63;96.79;103353.34;5003459;28;20029;-61
2022/01/25 07:39:06;;;;;;;103.43;45.90;;;;;;;2.65;97.18;103348.69;5000556;28;20477;-61
2022/01/25 07:41:32;;;;;;;99.55;44.78;;;;;;;2.67;96.78;103353.97;5002496;28;20068;-61
2022/01/25 07:43:59;;;;;;;104.50;48.90;;;;;;;2.67;96.71;103357.56;5004256;28;20310;-62
2022/01/25 07:46:24;;;;;;;107.18;47.88;;;;;;;2.67;95.65;103345.84;5004307;28;20033;-62
2022/01/25 07:48:50;;;;;;;115.03;51.97;;;;;;;2.68;95.38;103348.41;5004260;28;20101;-62
2022/01/25 07:51:15;;;;;;;126.88;56.85;;;;;;;2.69;93.78;103352.91;5003314;28;20523;-62
2022/01/25 07:53:41;;;;;;;132.98;58.50;;;;;;;2.72;93.67;103351.78;5004089;28;20026;-62
2022/01/25 07:56:06;;;;;;;140.32;59.88;;;;;;;2.74;93.09;103355.25;5003080;28;20026;-62
2022/01/25 07:58:31;;;;;;;133.50;59.33;;;;;;;2.76;93.41;103348.72;5003614;28;20500;-62
2022/01/25 08:00:58;;;;;;;127.97;56.40;;;;;;;2.77;93.55;103353.16;5002015;28;20162;-62
2022/01/25 08:03:23;;;;;;;129.85;57.58;;;;;;;2.79;93.83;103353.06;4995471;28;20061;-62
2022/01/25 08:05:50;;;;;;;123.88;55.90;;;;;;;2.79;92.74;103345.78;4997266;28;20037;-62
2022/01/25 08:08:15;;;;;;;130.20;55.67;;;;;;;2.81;93.40;103351.06;4995866;28;20457;-62
2022/01/25 08:10:41;;;;;;;130.35;59.20;;;;;;;2.83;91.87;103349.09;4994552;28;20037;-63
2022/01/25 08:13:06;;;;;;;130.00;59.03;;;;;;;2.85;91.75;103350.72;5001962;28;20567;-62
2022/01/25 08:15:31;;;;;;;129.38;56.78;;;;;;;2.89;92.50;103359.50;5000438;28;20076;-62
2022/01/25 08:17:57;;;;;;;125.32;54.83;;;;;;;2.91;92.35;103357.53;4999463;28;20038;-62
2022/01/25 08:20:22;;;;;;;128.00;57.03;;;;;;;2.94;92.45;103361.84;5002738;28;20349;-62
2022/01/25 08:22:47;;;;;;;131.25;59.10;;;;;;;2.94;91.80;103361.84;5001572;28;20034;-62
2022/01/25 08:25:13;;;;;;;128.27;59.10;;;;;;;2.95;91.07;103356.31;5002406;28;20033;-62
2022/01/25 08:27:39;;;;;;;130.52;57.55;;;;;;;2.99;91.56;103367.78;4993012;28;20029;-62
2022/01/25 08:30:05;;;;;;;129.65;58.58;;;;;;;3.01;91.00;103365.81;5004084;28;20547;-62
2022/01/25 08:32:31;;;;;;;136.95;60.22;;;;;;;3.01;90.50;103368.53;4999304;28;20040;-62
2022/01/25 08:34:57;;;;;;;137.82;60.63;;;;;;;3.02;89.49;103362.97;4990127;28;20077;-62
2022/01/25 08:37:23;;;;;;;138.05;62.42;;;;;;;3.01;87.24;103353.09;4996163;28;20056;-63
2022/01/25 08:39:48;;;;;;;135.93;63.25;;;;;;;3.03;85.24;103358.41;5007655;28;20049;-62
2022/01/25 08:42:13;;;;;;;133.80;58.47;;;;;;;3.06;86.56;103369.03;5007245;28;20072;-62
2022/01/25 08:44:39;;;;;;;132.73;60.08;;;;;;;3.06;86.79;103364.47;5008289;28;20026;-62
2022/01/25 08:47:08;;;;;;;135.50;60.15;;;;;;;3.09;86.64;103366.06;5006697;28;20069;-62
2022/01/25 08:49:35;;;;;;;138.07;62.65;;;;;;;3.12;85.52;103363.13;5007538;28;20026;-62
2022/01/25 08:52:00;;;;;;;138.23;60.90;;;;;;;3.13;85.33;103365.72;5004164;28;20026;-63
2022/01/25 08:54:26;;;;;;;138.45;61.90;;;;;;;3.16;86.45;103363.75;5007696;28;20034;-62
2022/01/25 08:56:52;;;;;;;141.02;61.72;;;;;;;3.18;86.71;103364.50;5004530;28;20026;-62
2022/01/25 08:59:17;;;;;;;136.88;62.22;;;;;;;3.20;86.83;103360.69;5002817;28;20077;-62
2022/01/25 09:01:43;;;;;;;134.75;58.72;;;;;;;3.25;87.51;103369.34;5002450;28;20454;-62
2022/01/25 09:04:08;;;;;;;131.70;58.72;;;;;;;3.21;87.89;103369.69;5017583;28;20022;-62
2022/01/25 09:06:34;;;;;;;122.85;57.22;;;;;;;3.24;88.59;103372.16;5004719;28;20021;-62
2022/01/25 09:09:07;;;;;;;126.95;58.47;;;;;;;3.23;88.43;103378.56;5006446;28;20417;-62
2022/01/25 09:11:35;;;;;;;125.60;54.83;;;;;;;3.30;87.62;103377.13;4994116;28;20048;-62
2022/01/25 09:14:00;;;;;;;136.32;59.30;;;;;;;3.37;85.01;103371.06;4999064;28;20030;-62
2022/01/25 09:16:26;;;;;;;136.05;61.13;;;;;;;3.25;85.39;103372.06;5003939;28;20053;-62
2022/01/25 09:18:51;;;;;;;135.73;60.38;;;;;;;3.26;85.27;103365.63;5003722;28;20034;-62
2022/01/25 09:21:17;;;;;;;137.23;60.97;;;;;;;3.29;86.50;103378.09;5005230;28;20025;-63
2022/01/25 09:23:42;;;;;;;139.20;60.85;;;;;;;3.41;84.28;103376.28;4999893;28;20049;-63
2022/01/25 09:26:07;;;;;;;137.40;60.50;;;;;;;3.45;83.14;103383.16;4995052;28;20088;-62
2022/01/25 09:28:33;;;;;;;143.07;62.83;;;;;;;3.34;84.26;103381.31;5006876;28;20029;-62
2022/01/25 09:30:58;;;;;;;130.32;60.85;;;;;;;3.37;84.62;103387.38;5002219;28;20073;-62
2022/01/25 09:33:26;;;;;;;134.13;56.83;;;;;;;3.56;82.06;103386.78;5006198;28;20109;-62
2022/01/25 09:35:52;;;;;;;134.68;60.28;;;;;;;3.50;82.41;103384.56;4998629;28;20451;-62
2022/01/25 09:38:18;;;;;;;138.52;60.88;;;;;;;3.36;83.88;103396.50;5000342;28;20122;-62
2022/01/25 09:40:44;;;;;;;137.07;61.17;;;;;;;3.38;83.80;103394.53;5005868;28;20399;-62
2022/01/25 09:43:09;;;;;;;143.88;62.15;;;;;;;3.35;84.83;103391.22;5006090;28;20036;-63
2022/01/25 09:45:36;;;;;;;132.50;57.20;;;;;;;3.49;82.18;103385.53;5004842;28;20038;-62
2022/01/25 09:48:03;;;;;;;139.02;62.75;;;;;;;3.53;82.12;103387.00;5001975;28;20033;-62
2022/01/25 09:50:28;;;;;;;139.75;62.30;;;;;;;3.37;84.71;103389.22;5002561;28;20041;-62
2022/01/25 09:52:54;;;;;;;136.32;61.75;;;;;;;3.37;84.29;103392.81;4999711;28;20095;-62
2022/01/25 09:55:27;;;;;;;138.65;60.38;;;;;;;3.44;84.36;103404.03;4993134;28;20041;-62
2022/01/25 09:57:53;;;;;;;142.38;61.92;;;;;;;3.40;84.42;103399.84;5001297;28;20061;-62
2022/01/25 10:00:21;;;;;;;129.30;60.45;;;;;;;3.48;83.78;103402.81;5005195;28;20034;-62
2022/01/25 10:03:18;;;;;;;135.32;61.45;;;;;;;3.43;84.80;103396.03;5005957;28;20033;-62
2022/01/25 10:05:46;;;;;;;141.93;60.47;;;;;;;3.52;83.79;103400.72;5004428;28;20237;-62
2022/01/25 10:08:25;;;;;;;140.95;63.55;;;;;;;3.64;82.51;103408.75;5006390;28;20018;-62
2022/01/25 10:11:13;;;;;;;128.98;57.78;;;;;;;3.59;81.50;103408.25;5004894;28;20072;-62
2022/01/25 10:13:39;;;;;;;;;;;;;;;3.56;83.78;103403.09;5006053;28;20038;-63
2022/01/25 10:16:17;;;;;;;139.30;58.03;;;;;;;3.59;82.56;103402.81;5006419;28;19951;-62
2022/01/25 10:18:54;;;;;;;133.77;60.67;;;;;;;3.52;83.43;103398.88;5006019;28;20009;-62
2022/01/25 10:21:32;;;;;;;144.70;62.75;;;;;;;3.53;83.46;103408.75;4997202;28;20022;-62
2022/01/25 10:24:06;;;;;;;136.73;59.78;;;;;;;3.57;83.61;103404.81;5006573;28;20115;-62
2022/01/25 10:26:35;;;;;;;136.60;59.08;;;;;;;3.62;83.34;103401.72;4991322;28;20061;-62
2022/01/25 10:29:01;;;;;;;138.18;60.83;;;;;;;3.64;83.51;103408.75;4986139;28;20019;-62
2022/01/25 10:31:36;;;;;;;130.43;60.38;;;;;;;3.68;83.35;103411.25;4986406;28;20060;-62
2022/01/25 10:34:01;;;;;;;131.50;60.33;;;;;;;3.86;80.31;103401.63;4986572;28;20081;-62
2022/01/25 10:36:27;;;;;;;129.80;57.17;;;;;;;3.76;79.97;103408.78;4985410;28;20073;-62
2022/01/25 10:38:54;;;;;;;134.20;61.25;;;;;;;3.65;81.75;103406.94;4986266;28;20747;-62
2022/01/25 10:41:22;;;;;;;131.05;60.88;;;;;;;3.64;80.42;103400.59;4999581;28;20169;-62
2022/01/25 10:43:49;;;;;;;135.90;62.30;;;;;;;3.70;81.72;103398.38;4999810;28;20032;-62
2022/01/25 10:46:19;;;;;;;131.45;61.15;;;;;;;3.75;81.79;103390.72;5003464;28;20041;-62
2022/01/25 10:48:58;;;;;;;127.78;61.63;;;;;;;3.81;81.20;103395.69;5005518;28;20314;-62
2022/01/25 10:51:45;;;;;;;134.77;61.28;;;;;;;3.90;82.41;103403.06;5000912;28;20030;-62
2022/01/25 10:54:17;;;;;;;135.50;61.35;;;;;;;3.89;81.69;103398.63;4996319;28;20022;-63
2022/01/25 10:56:54;;;;;;;130.73;59.40;;;;;;;3.96;81.46;103394.44;5002085;28;20061;-62
2022/01/25 10:59:29;;;;;;;130.93;58.47;;;;;;;4.11;79.57;103387.75;5005876;28;20057;-62
2022/01/25 11:02:00;;;;;;;128.02;55.25;;;;;;;4.05;78.16;103393.66;5004964;28;20034;-62
2022/01/25 11:04:35;;;;;;;129.50;59.08;;;;;;;4.00;79.10;103398.63;5003581;28;20069;-62
2022/01/25 11:07:11;;;;;;;126.88;58.88;;;;;;;3.89;79.84;103396.78;4996527;28;20018;-62
2022/01/25 11:09:42;;;;;;;128.20;58.75;;;;;;;3.98;79.06;103402.47;4998241;28;20022;-62
2022/01/25 11:12:11;;;;;;;120.47;54.75;;;;;;;4.03;77.23;103402.97;4996214;28;20413;-62
2022/01/25 11:14:57;;;;;;;125.80;59.83;;;;;;;3.88;80.07;103411.38;4986695;28;20380;-62
2022/01/25 11:17:27;;;;;;;131.38;60.40;;;;;;;3.90;80.86;103411.22;4985729;28;20401;-62
2022/01/25 11:19:53;;;;;;;134.20;59.78;;;;;;;3.92;80.98;103408.41;5003169;28;20597;-62
2022/01/25 11:22:22;;;;;;;130.30;59.22;;;;;;;4.01;78.85;103402.22;5004718;28;20116;-62
2022/01/25 11:24:51;;;;;;;131.48;59.63;;;;;;;3.92;80.04;103401.13;5004910;28;20484;-62
2022/01/25 11:27:19;;;;;;;130.23;60.95;;;;;;;3.92;80.13;103400.25;5005058;28;20137;-62
2022/01/25 11:29:46;;;;;;;127.43;57.53;;;;;;;4.07;79.36;103402.59;5000664;28;20053;-62
2022/01/25 11:32:15;;;;;;;133.88;59.13;;;;;;;3.93;81.29;103402.84;5004793;28;20062;-62
2022/01/25 11:34:40;;;;;;;;;;;;;;;3.99;81.95;103404.19;5004936;28;20033;-63
2022/01/25 11:37:07;;;;;;;125.55;55.63;;;;;;;3.97;81.46;103400.75;5004558;28;19924;-62
2022/01/25 11:39:35;;;;;;;128.73;57.60;;;;;;;3.95;80.99;103402.72;5005015;28;20092;-62
2022/01/25 11:42:18;;;;;;;132.03;58.57;;;;;;;3.99;81.40;103405.06;5000868;28;20487;-62
2022/01/25 11:44:58;;;;;;;132.73;60.28;;;;;;;4.00;81.08;103397.75;5000286;28;20030;-62
2022/01/25 11:47:31;;;;;;;117.00;48.83;;;;;;;4.05;80.38;103401.81;5005439;28;20025;-62
2022/01/25 11:50:06;;;;;;;126.38;54.35;;;;;;;4.23;77.91;103394.03;5000901;28;20048;-62
2022/01/25 11:52:32;;;;;;;123.25;56.33;;;;;;;4.03;78.22;103401.09;4998862;28;20034;-62
2022/01/25 11:55:16;;;;;;;135.50;59.22;;;;;;;3.96;80.87;103399.03;4997269;28;20173;-62
2022/01/25 11:57:56;;;;;;;130.00;60.35;;;;;;;3.96;80.60;103399.03;5003713;28;20046;-62
2022/01/25 12:00:39;;;;;;;126.88;57.20;;;;;;;4.00;79.59;103400.47;5004074;28;20116;-62
2022/01/25 12:03:23;;;;;;;123.03;55.22;;;;;;;3.90;81.19;103394.91;4986740;28;20042;-62
2022/01/25 12:06:08;;;;;;;129.68;57.53;;;;;;;4.22;79.40;103395.03;5002545;28;20095;-62
2022/01/25 12:08:52;;;;;;;97.05;39.63;;;;;;;4.14;78.18;103387.47;5002985;28;20121;-62
2022/01/25 12:11:41;;;;;;;122.95;50.15;;;;;;;4.11;77.46;103379.59;5003448;28;20040;-62
2022/01/25 12:14:30;;;;;;;126.30;52.70;;;;;;;4.05;77.25;103385.50;5005257;28;20036;-62
2022/01/25 12:17:04;;;;;;;127.32;57.30;;;;;;;3.83;79.09;103378.25;5004252;28;20041;-62
2022/01/25 12:19:39;;;;;;;109.38;45.78;;;;;;;4.03;77.57;103376.63;4999137;28;20030;-62
2022/01/25 12:22:08;;;;;;;125.68;55.55;;;;;;;3.81;79.37;103380.25;5004030;28;20037;-62
2022/01/25 12:24:51;;;;;;;131.93;58.25;;;;;;;3.72;80.12;103377.41;5004459;28;20018;-62
2022/01/25 12:27:33;;;;;;;126.40;51.83;;;;;;;3.78;79.58;103376.91;5003001;28;20025;-62
2022/01/25 12:30:25;;;;;;;124.50;55.20;;;;;;;3.78;79.82;103379.63;4994977;28;20503;-62
2022/01/25 12:33:00;;;;;;;120.15;48.85;;;;;;;3.82;79.67;103375.66;4997750;28;20030;-62
2022/01/25 12:35:49;;;;;;;110.57;45.05;;;;;;;4.20;77.29;103366.22;5000180;28;20065;-62
2022/01/25 12:38:19;;;;;;;123.70;54.05;;;;;;;3.98;76.57;103373.41;5003208;28;20026;-62
2022/01/25 12:40:56;;;;;;;111.97;45.80;;;;;;;4.02;76.99;103361.31;5003285;28;20038;-62
2022/01/25 12:43:41;;;;;;;124.57;56.10;;;;;;;3.77;79.75;103369.75;5003765;28;20042;-62
2022/01/25 12:46:13;;;;;;;124.75;54.28;;;;;;;3.79;79.01;103362.31;5004175;28;20036;-62
2022/01/25 12:48:46;;;;;;;120.38;50.25;;;;;;;3.98;78.56;103353.53;5003817;28;20135;-62
2022/01/25 12:51:14;;;;;;;113.22;47.58;;;;;;;3.97;78.82;103352.66;5001976;28;20550;-62
2022/01/25 12:53:43;;;;;;;120.45;50.13;;;;;;;3.88;79.63;103357.00;4995009;28;20037;-62